Time;durP1;ratioP1;P1;durP2;ratioP2;P2;SDS_P1;SDS_P2;PMS_P1;PMS_P2;Temp;Humidity;BMP_temperature;BMP_pressure;BME280_temperature;BME280_humidity;BME280_pressure;Samples;Min_cycle;Max_cycle;Signal;HPM_P1;HPM_P2
2021/08/28 00:00:36;;;;;;;3.92;1.15;;;15.20;89.90;;;;;;2049025;29;20078;-90
2021/08/28 00:01:37;;;;;;;3.20;1.00;;;15.20;89.90;;;;;;2034300;29;20028;-90
2021/08/28 00:02:38;;;;;;;4.95;1.10;;;15.20;89.90;;;;;;2041653;29;20096;-89
2021/08/28 00:03:38;;;;;;;2.55;0.90;;;15.20;89.80;;;;;;2057610;28;20063;-89
2021/08/28 00:04:39;;;;;;;2.00;0.90;;;15.20;89.80;;;;;;2048092;28;20043;-90
2021/08/28 00:05:39;;;;;;;2.55;1.10;;;15.20;89.80;;;;;;2038015;29;20035;-89
2021/08/28 00:06:40;;;;;;;2.17;1.20;;;15.30;90.20;;;;;;2049664;29;20592;-89
2021/08/28 00:07:41;;;;;;;3.53;1.40;;;15.30;89.80;;;;;;2048708;28;20035;-90
2021/08/28 00:08:41;;;;;;;2.75;1.08;;;15.30;89.80;;;;;;2049135;28;20133;-90
2021/08/28 00:09:42;;;;;;;3.33;1.30;;;15.30;90.10;;;;;;2049802;28;20040;-89
2021/08/28 00:10:43;;;;;;;4.20;1.20;;;15.30;89.80;;;;;;2051400;28;20070;-90
2021/08/28 00:11:43;;;;;;;3.10;1.10;;;15.30;89.80;;;;;;2057653;28;20035;-89
2021/08/28 00:12:44;;;;;;;3.70;1.38;;;15.30;89.90;;;;;;2049577;29;20046;-90
2021/08/28 00:13:45;;;;;;;3.10;1.15;;;15.30;89.90;;;;;;2043623;28;20416;-90
2021/08/28 00:14:45;;;;;;;3.90;1.40;;;15.30;89.90;;;;;;2055804;28;20063;-89
2021/08/28 00:15:46;;;;;;;3.78;1.60;;;15.30;90.00;;;;;;2058474;28;20039;-90
2021/08/28 00:16:47;;;;;;;3.50;1.13;;;15.30;90.00;;;;;;2058656;28;20057;-90
2021/08/28 00:17:47;;;;;;;3.13;1.33;;;15.30;90.00;;;;;;2041897;29;20032;-90
2021/08/28 00:18:48;;;;;;;3.75;1.42;;;15.30;90.00;;;;;;2028252;29;20499;-90
2021/08/28 00:19:49;;;;;;;2.60;1.30;;;15.30;90.30;;;;;;2035335;29;20032;-90
2021/08/28 00:20:50;;;;;;;2.65;1.20;;;15.30;90.00;;;;;;2051734;28;20129;-90
2021/08/28 00:21:50;;;;;;;4.07;1.30;;;15.30;90.00;;;;;;2041405;29;20027;-90
2021/08/28 00:22:51;;;;;;;4.82;1.38;;;15.30;90.00;;;;;;2049281;28;20043;-90
2021/08/28 00:23:52;;;;;;;4.97;1.02;;;15.30;90.00;;;;;;2058454;28;20777;-90
2021/08/28 00:24:52;;;;;;;3.13;1.05;;;15.30;90.00;;;;;;2048715;28;20499;-89
2021/08/28 00:25:53;;;;;;;3.83;1.40;;;15.30;90.00;;;;;;2049337;28;20063;-90
2021/08/28 00:26:54;;;;;;;3.38;1.13;;;15.40;90.00;;;;;;2057022;28;20050;-89
2021/08/28 00:27:55;;;;;;;4.25;1.17;;;15.40;90.00;;;;;;2065378;28;20038;-90
2021/08/28 00:28:56;;;;;;;3.72;1.35;;;15.40;90.00;;;;;;2056774;28;20584;-89
2021/08/28 00:29:57;;;;;;;4.05;1.38;;;15.40;90.00;;;;;;2057137;28;20026;-90
2021/08/28 00:30:58;;;;;;;2.88;1.08;;;15.40;90.00;;;;;;2049228;29;20067;-90
2021/08/28 00:31:58;;;;;;;2.78;1.50;;;15.40;90.00;;;;;;2050171;29;20065;-89
2021/08/28 00:33:12;;;;;;;2.80;1.13;;;15.40;90.00;;;;;;2041423;29;20134;-90
2021/08/28 00:34:13;;;;;;;3.22;1.38;;;15.40;90.00;;;;;;2044448;28;20507;-90
2021/08/28 00:35:14;;;;;;;3.90;1.30;;;15.40;90.00;;;;;;2056320;28;20042;-90
2021/08/28 00:36:14;;;;;;;3.50;1.20;;;15.40;90.00;;;;;;2054936;28;20038;-90
2021/08/28 00:37:15;;;;;;;4.15;1.42;;;15.40;90.00;;;;;;2055371;28;20042;-89
2021/08/28 00:38:16;;;;;;;3.42;1.27;;;15.40;90.00;;;;;;2049780;28;20090;-90
2021/08/28 00:39:16;;;;;;;2.97;1.40;;;15.40;90.00;;;;;;2048989;28;20466;-90
2021/08/28 00:40:17;;;;;;;3.50;1.30;;;15.40;90.00;;;;;;2057301;28;20085;-90
2021/08/28 00:41:17;;;;;;;3.83;1.20;;;15.40;90.00;;;;;;2040708;29;20036;-90
2021/08/28 00:42:18;;;;;;;3.58;1.42;;;15.40;90.00;;;;;;2041072;28;20498;-89
2021/08/28 00:43:19;;;;;;;4.00;1.50;;;15.40;90.30;;;;;;2048938;29;20063;-90
2021/08/28 00:44:19;;;;;;;2.13;1.17;;;15.40;90.00;;;;;;2048324;28;20137;-89
2021/08/28 00:45:25;;;;;;;4.13;1.17;;;15.40;90.00;;;;;;2049082;28;20454;-90
2021/08/28 00:46:26;;;;;;;5.22;1.60;;;15.40;90.00;;;;;;2056427;28;20045;-90
2021/08/28 00:47:27;;;;;;;4.70;2.15;;;15.40;90.00;;;;;;2048568;29;20588;-90
2021/08/28 00:48:27;;;;;;;3.30;1.02;;;15.40;90.00;;;;;;2041251;28;20062;-90
2021/08/28 00:49:28;;;;;;;3.53;1.45;;;15.40;90.10;;;;;;2041275;29;20042;-90
2021/08/28 00:50:31;;;;;;;4.90;1.40;;;15.40;90.10;;;;;;2033560;29;20136;-89
2021/08/28 00:51:32;;;;;;;3.45;1.40;;;15.40;90.10;;;;;;2041166;29;20533;-89
2021/08/28 00:52:34;;;;;;;4.32;1.40;;;15.50;90.10;;;;;;2041495;28;20131;-90
2021/08/28 00:53:34;;;;;;;2.42;1.10;;;15.40;90.30;;;;;;2049162;29;20573;-89
2021/08/28 00:54:36;;;;;;;3.03;1.15;;;15.40;90.30;;;;;;2049207;29;20046;-89
2021/08/28 00:55:42;;;;;;;3.38;1.40;;;15.40;90.10;;;;;;2048966;29;20154;-90
2021/08/28 00:56:43;;;;;;;3.63;1.42;;;15.50;90.10;;;;;;2048623;29;20094;-89
2021/08/28 00:57:44;;;;;;;3.90;1.45;;;15.50;90.10;;;;;;2041209;29;20039;-89
2021/08/28 00:58:44;;;;;;;4.00;1.40;;;15.50;90.10;;;;;;2047636;28;20027;-90
2021/08/28 00:59:45;;;;;;;4.53;1.50;;;15.50;90.10;;;;;;2057325;28;20098;-90
2021/08/28 01:00:55;;;;;;;4.03;1.20;;;15.50;90.10;;;;;;2049208;29;20143;-90
2021/08/28 01:01:56;;;;;;;2.97;1.23;;;15.50;90.10;;;;;;2042460;29;20093;-89
2021/08/28 01:02:59;;;;;;;2.45;1.30;;;15.40;90.10;;;;;;2054584;28;20031;-89
2021/08/28 01:04:01;;;;;;;3.42;1.30;;;15.50;90.10;;;;;;2057205;28;20038;-89
2021/08/28 01:05:10;;;;;;;2.17;1.02;;;15.50;90.10;;;;;;2057860;28;20038;-90
2021/08/28 01:06:52;;;;;;;3.83;1.30;;;15.50;90.10;;;;;;2050618;28;20031;-90
2021/08/28 01:08:05;;;;;;;2.72;1.30;;;15.50;90.10;;;;;;2056663;28;20402;-90
2021/08/28 01:09:21;;;;;;;4.10;1.38;;;15.50;90.10;;;;;;2056967;28;20070;-90
2021/08/28 01:10:27;;;;;;;2.65;1.20;;;15.50;90.10;;;;;;2045485;28;20447;-89
2021/08/28 01:11:49;;;;;;;3.97;1.08;;;15.50;90.10;;;;;;2049090;28;20023;-90
2021/08/28 01:12:53;;;;;;;2.95;1.23;;;15.50;90.10;;;;;;2051726;28;20054;-90
2021/08/28 01:14:16;;;;;;;2.67;1.20;;;15.50;90.10;;;;;;2056903;28;20058;-90
2021/08/28 01:15:22;;;;;;;3.17;1.20;;;15.50;90.10;;;;;;2064871;28;20027;-90
2021/08/28 01:16:23;;;;;;;2.53;1.10;;;15.50;90.10;;;;;;2063801;28;20037;-89
2021/08/28 01:17:26;;;;;;;3.15;1.20;;;15.50;90.10;;;;;;2055353;28;20038;-90
2021/08/28 01:18:28;;;;;;;3.92;1.30;;;15.50;90.10;;;;;;2045171;29;20044;-89
2021/08/28 01:19:35;;;;;;;2.50;1.10;;;15.50;90.10;;;;;;2049133;28;20047;-89
2021/08/28 01:20:44;;;;;;;4.82;1.15;;;15.50;90.10;;;;;;2064207;28;20034;-90
2021/08/28 01:21:46;;;;;;;2.55;1.30;;;15.50;90.10;;;;;;2057008;28;20118;-89
2021/08/28 01:22:48;;;;;;;3.72;1.33;;;15.50;90.10;;;;;;2048737;28;20040;-90
2021/08/28 01:23:50;;;;;;;3.22;1.50;;;15.50;90.10;;;;;;2049175;28;20101;-89
2021/08/28 01:24:51;;;;;;;4.32;1.40;;;15.50;90.10;;;;;;2040257;29;20087;-89
2021/08/28 01:25:53;;;;;;;4.13;1.40;;;15.50;90.20;;;;;;2049109;28;20073;-89
2021/08/28 01:27:15;;;;;;;4.60;1.38;;;15.50;90.20;;;;;;2065309;28;20026;-90
2021/08/28 01:28:16;;;;;;;3.40;1.35;;;15.50;90.20;;;;;;2062301;28;20086;-90
2021/08/28 01:29:19;;;;;;;3.67;1.40;;;15.50;90.20;;;;;;2048885;29;20462;-90
2021/08/28 01:30:20;;;;;;;3.22;1.33;;;15.50;90.20;;;;;;2048769;29;20038;-89
2021/08/28 01:31:21;;;;;;;4.32;1.30;;;15.50;90.20;;;;;;2033774;29;20119;-89
2021/08/28 01:32:23;;;;;;;4.35;1.48;;;15.50;90.20;;;;;;2041334;28;20069;-89
2021/08/28 01:33:24;;;;;;;3.40;1.20;;;15.50;90.20;;;;;;2057354;28;20383;-90
2021/08/28 01:34:27;;;;;;;3.03;1.17;;;15.50;90.20;;;;;;2048361;28;20158;-90
2021/08/28 01:35:28;;;;;;;3.72;1.52;;;15.50;90.20;;;;;;2057434;28;20046;-89
2021/08/28 01:36:31;;;;;;;3.38;1.60;;;15.50;90.20;;;;;;2054813;28;20043;-90
2021/08/28 01:37:32;;;;;;;2.88;1.30;;;15.50;90.20;;;;;;2046059;28;20043;-90
2021/08/28 01:38:34;;;;;;;3.33;1.50;;;15.50;90.20;;;;;;2048911;28;20035;-90
2021/08/28 01:39:36;;;;;;;4.65;1.50;;;15.50;90.20;;;;;;2041178;29;20032;-90
2021/08/28 01:40:37;;;;;;;3.70;1.50;;;15.50;90.20;;;;;;2041235;28;20043;-90
2021/08/28 01:41:38;;;;;;;2.75;1.35;;;15.50;90.30;;;;;;2049090;28;20521;-89
2021/08/28 01:42:40;;;;;;;2.42;1.30;;;15.50;90.50;;;;;;2050829;28;20059;-90
2021/08/28 01:43:41;;;;;;;3.55;1.35;;;15.50;90.30;;;;;;2049011;29;20035;-90
2021/08/28 01:44:50;;;;;;;3.42;1.40;;;15.50;90.30;;;;;;2049107;28;20039;-90
2021/08/28 01:45:51;;;;;;;4.43;1.63;;;15.50;90.30;;;;;;2055840;28;20043;-90
2021/08/28 01:46:53;;;;;;;4.78;1.48;;;15.50;90.30;;;;;;2062504;28;20521;-90
2021/08/28 01:47:54;;;;;;;3.17;1.70;;;15.50;90.30;;;;;;2056768;28;20038;-90
2021/08/28 01:48:56;;;;;;;4.32;1.98;;;15.50;90.30;;;;;;2049015;28;20027;-90
2021/08/28 01:49:58;;;;;;;3.58;1.50;;;15.50;90.30;;;;;;2056597;28;20035;-90
2021/08/28 01:50:59;;;;;;;3.53;1.30;;;15.50;90.30;;;;;;2057301;28;20166;-89
2021/08/28 01:52:00;;;;;;;4.13;1.45;;;15.50;90.40;;;;;;2061135;28;20047;-90
2021/08/28 01:53:01;;;;;;;4.97;1.52;;;15.40;90.40;;;;;;2065278;28;20382;-90
2021/08/28 01:54:01;;;;;;;3.58;1.55;;;15.40;90.40;;;;;;2064929;28;20125;-90
2021/08/28 01:55:04;;;;;;;4.38;1.60;;;15.40;90.50;;;;;;2049071;28;20047;-90
2021/08/28 01:56:05;;;;;;;4.22;1.60;;;15.40;90.50;;;;;;2048339;28;20493;-90
2021/08/28 01:57:09;;;;;;;4.32;1.50;;;15.40;90.50;;;;;;2053069;28;20031;-90
2021/08/28 01:58:11;;;;;;;4.55;1.58;;;15.40;90.60;;;;;;2057157;28;20069;-90
2021/08/28 01:59:14;;;;;;;3.92;1.42;;;15.40;90.60;;;;;;2054340;28;20038;-90
2021/08/28 02:00:14;;;;;;;4.30;1.40;;;15.40;90.60;;;;;;2049057;28;20039;-90
2021/08/28 02:01:15;;;;;;;3.60;1.35;;;15.40;90.60;;;;;;2040939;29;20054;-89
2021/08/28 02:02:16;;;;;;;5.13;1.70;;;15.40;90.60;;;;;;2040853;29;20490;-90
2021/08/28 02:03:16;;;;;;;2.95;1.30;;;15.40;90.60;;;;;;2049110;28;20043;-90
2021/08/28 02:04:17;;;;;;;4.10;1.50;;;15.40;90.90;;;;;;2051358;28;20097;-90
2021/08/28 02:05:18;;;;;;;5.85;1.70;;;15.40;90.60;;;;;;2056815;28;20054;-90
2021/08/28 02:06:36;;;;;;;3.75;1.42;;;15.40;90.60;;;;;;2059014;28;22335;-90
2021/08/28 02:07:49;;;;;;;2.90;1.40;;;15.40;90.60;;;;;;2048641;29;20111;-90
2021/08/28 02:09:12;;;;;;;5.07;1.60;;;15.40;90.60;;;;;;2042768;29;20050;-90
2021/08/28 02:10:17;;;;;;;2.90;1.20;;;15.40;90.60;;;;;;2053639;28;20066;-90
2021/08/28 02:11:40;;;;;;;3.60;1.50;;;15.40;90.60;;;;;;2045362;29;20031;-90
2021/08/28 02:12:49;;;;;;;3.38;1.35;;;15.40;90.60;;;;;;2048986;28;20034;-90
2021/08/28 02:13:57;;;;;;;3.28;1.45;;;15.40;90.60;;;;;;2049506;28;20063;-90
2021/08/28 02:15:29;;;;;;;4.70;1.60;;;15.40;90.60;;;;;;2056582;28;20031;-90
2021/08/28 02:16:33;;;;;;;3.35;1.40;;;15.40;90.60;;;;;;2051098;28;20194;-90
2021/08/28 02:17:40;;;;;;;5.43;1.48;;;15.40;90.60;;;;;;2064419;28;20584;-90
2021/08/28 02:19:09;;;;;;;4.07;1.52;;;15.40;90.60;;;;;;2066643;28;20031;-90
2021/08/28 02:20:12;;;;;;;3.95;1.48;;;15.40;90.60;;;;;;2066774;28;20062;-89
2021/08/28 02:21:14;;;;;;;3.92;1.50;;;15.40;90.60;;;;;;2074294;28;20042;-90
2021/08/28 02:22:28;;;;;;;3.25;1.40;;;15.40;90.60;;;;;;2074711;28;20030;-90
2021/08/28 02:23:41;;;;;;;3.63;1.67;;;15.40;90.60;;;;;;2065962;28;20038;-90
2021/08/28 02:24:46;;;;;;;3.40;1.38;;;15.40;90.60;;;;;;2061702;28;20038;-90
2021/08/28 02:26:11;;;;;;;4.00;1.50;;;15.40;90.60;;;;;;2052199;28;20082;-90
2021/08/28 02:27:21;;;;;;;2.92;1.40;;;15.40;90.60;;;;;;2051543;28;20054;-90
2021/08/28 02:28:32;;;;;;;3.08;1.35;;;15.40;90.70;;;;;;2052798;28;20027;-90
2021/08/28 02:30:07;;;;;;;3.67;1.30;;;15.40;90.70;;;;;;2058926;28;20042;-90
2021/08/28 02:31:10;;;;;;;3.90;1.60;;;15.40;90.70;;;;;;2042334;29;20520;-90
2021/08/28 02:32:12;;;;;;;5.40;1.70;;;15.40;90.70;;;;;;2056210;28;20106;-89
2021/08/28 02:33:13;;;;;;;3.20;1.40;;;15.40;90.70;;;;;;2058211;28;20114;-90
2021/08/28 02:34:17;;;;;;;2.47;1.15;;;15.40;90.70;;;;;;2050514;28;20054;-90
2021/08/28 02:35:19;;;;;;;3.75;1.60;;;15.40;90.70;;;;;;2050429;28;20031;-90
2021/08/28 02:36:19;;;;;;;4.38;1.50;;;15.40;90.80;;;;;;2052916;28;20135;-90
2021/08/28 02:37:22;;;;;;;3.70;1.60;;;15.40;90.80;;;;;;2042735;29;20040;-90
2021/08/28 02:38:23;;;;;;;5.13;1.50;;;15.40;90.80;;;;;;2046247;28;20059;-90
2021/08/28 02:39:26;;;;;;;4.80;1.80;;;15.40;90.80;;;;;;2051440;28;20043;-90
2021/08/28 02:40:29;;;;;;;3.22;1.45;;;15.40;90.80;;;;;;2050321;29;20055;-90
2021/08/28 02:41:30;;;;;;;3.80;1.45;;;15.40;90.80;;;;;;2050739;28;20031;-90
2021/08/28 02:42:31;;;;;;;3.72;1.63;;;15.40;90.80;;;;;;2050104;28;20050;-91
2021/08/28 02:43:32;;;;;;;4.07;1.63;;;15.40;90.90;;;;;;2042430;29;20031;-90
2021/08/28 02:44:34;;;;;;;5.43;1.70;;;15.40;90.90;;;;;;2045581;29;20046;-90
2021/08/28 02:45:35;;;;;;;3.72;1.67;;;15.40;90.90;;;;;;2051204;28;20031;-91
2021/08/28 02:46:37;;;;;;;4.18;1.60;;;15.40;91.20;;;;;;2043650;29;20554;-90
2021/08/28 02:47:38;;;;;;;3.90;1.65;;;15.40;90.90;;;;;;2047409;28;20568;-91
2021/08/28 02:48:39;;;;;;;3.05;1.40;;;15.40;90.90;;;;;;2057867;28;20046;-91
2021/08/28 02:49:42;;;;;;;2.95;1.42;;;15.40;90.90;;;;;;2058264;28;20039;-91
2021/08/28 02:50:44;;;;;;;4.95;1.80;;;15.40;90.90;;;;;;2054035;28;20067;-91
2021/08/28 02:51:46;;;;;;;3.92;1.60;;;15.40;90.90;;;;;;2050653;28;20058;-90
2021/08/28 02:52:48;;;;;;;4.88;1.60;;;15.40;91.00;;;;;;2050294;29;20082;-91
2021/08/28 02:53:50;;;;;;;4.47;1.98;;;15.40;91.00;;;;;;2049959;28;20473;-90
2021/08/28 02:54:55;;;;;;;4.65;1.70;;;15.40;91.00;;;;;;2050670;28;20089;-92
2021/08/28 02:55:57;;;;;;;3.03;1.60;;;15.40;91.00;;;;;;2052316;28;20039;-91
2021/08/28 02:56:59;;;;;;;4.45;1.65;;;15.40;91.00;;;;;;2054850;28;20077;-91
2021/08/28 02:58:00;;;;;;;4.82;1.52;;;15.40;91.10;;;;;;2058000;28;20038;-91
2021/08/28 02:59:01;;;;;;;3.97;1.50;;;15.40;91.10;;;;;;2058302;28;20046;-90
2021/08/28 03:00:02;;;;;;;3.30;1.55;;;15.40;91.10;;;;;;2050060;29;20055;-90
2021/08/28 03:01:05;;;;;;;2.92;1.30;;;15.40;91.10;;;;;;2050469;28;20553;-90
2021/08/28 03:02:06;;;;;;;5.30;1.80;;;15.50;91.10;;;;;;2050079;29;20036;-90
2021/08/28 03:03:08;;;;;;;4.00;1.63;;;15.50;91.10;;;;;;2050056;28;20126;-90
2021/08/28 03:04:09;;;;;;;4.05;1.65;;;15.50;91.40;;;;;;2056462;28;20109;-91
2021/08/28 03:05:14;;;;;;;3.63;1.83;;;15.50;91.10;;;;;;2050057;28;20039;-91
2021/08/28 03:06:15;;;;;;;3.78;1.80;;;15.50;91.10;;;;;;2052586;28;20066;-91
2021/08/28 03:07:18;;;;;;;3.78;1.73;;;15.50;91.10;;;;;;2058125;28;20039;-91
2021/08/28 03:08:20;;;;;;;4.18;1.65;;;15.50;91.10;;;;;;2056127;28;20425;-92
2021/08/28 03:09:21;;;;;;;4.78;1.60;;;15.50;91.10;;;;;;2060780;28;20409;-92
2021/08/28 03:10:22;;;;;;;4.22;1.85;;;15.50;91.10;;;;;;2057576;28;20621;-92
2021/08/28 03:11:23;;;;;;;4.80;1.60;;;15.50;91.10;;;;;;2049810;28;20067;-91
2021/08/28 03:12:24;;;;;;;5.18;1.80;;;15.50;91.10;;;;;;2057511;28;20042;-92
2021/08/28 03:13:26;;;;;;;4.10;1.67;;;15.50;91.10;;;;;;2052516;28;20129;-92
2021/08/28 03:14:26;;;;;;;3.28;1.85;;;15.50;91.10;;;;;;2050278;28;20109;-92
2021/08/28 03:15:27;;;;;;;4.30;1.65;;;15.50;91.20;;;;;;2057775;28;20047;-93
2021/08/28 03:16:30;;;;;;;4.35;1.50;;;15.50;91.20;;;;;;2050100;28;20082;-93
2021/08/28 03:17:31;;;;;;;3.38;1.60;;;15.50;91.20;;;;;;2050139;28;20039;-93
2021/08/28 03:18:40;;;;;;;4.07;1.63;;;15.50;91.20;;;;;;2052017;28;20137;-94
2021/08/28 03:19:43;;;;;;;5.65;1.70;;;15.50;91.30;;;;;;2051541;28;20054;-94
2021/08/28 03:20:47;;;;;;;4.63;1.55;;;15.50;91.30;;;;;;2050189;28;20047;-96
2021/08/28 03:21:50;;;;;;;5.18;1.80;;;15.40;91.30;;;;;;2054028;28;20027;-94
2021/08/28 03:22:50;;;;;;;3.95;1.50;;;15.40;91.30;;;;;;2044260;29;20107;-93
2021/08/28 03:23:51;;;;;;;4.05;1.73;;;15.40;91.60;;;;;;2055383;28;20039;-93
2021/08/28 03:24:54;;;;;;;4.30;1.55;;;15.40;91.30;;;;;;2050780;28;20441;-95
2021/08/28 03:25:55;;;;;;;4.07;1.60;;;15.40;91.40;;;;;;2050490;29;20553;-93
2021/08/28 03:26:57;;;;;;;5.55;1.80;;;15.40;91.40;;;;;;2050347;29;20063;-94
2021/08/28 03:27:58;;;;;;;3.97;1.60;;;15.40;91.40;;;;;;2049957;28;20043;-94
2021/08/28 03:29:00;;;;;;;4.15;1.77;;;15.40;91.40;;;;;;2050853;28;20039;-94
2021/08/28 03:30:03;;;;;;;4.05;1.50;;;15.40;91.40;;;;;;2050771;28;20035;-93
2021/08/28 03:31:05;;;;;;;3.50;1.50;;;15.40;91.50;;;;;;2064682;28;20093;-94
2021/08/28 03:32:06;;;;;;;3.80;1.40;;;15.40;91.50;;;;;;2058470;28;20081;-94
2021/08/28 03:33:08;;;;;;;3.22;1.40;;;15.40;91.50;;;;;;2058859;28;20035;-93
2021/08/28 03:34:08;;;;;;;3.80;1.40;;;15.30;91.50;;;;;;2050398;29;20098;-94
2021/08/28 03:35:11;;;;;;;3.05;1.35;;;15.30;91.50;;;;;;2043135;29;20064;-94
2021/08/28 03:36:14;;;;;;;3.10;1.27;;;15.30;91.50;;;;;;2050966;28;20050;-94
2021/08/28 03:37:15;;;;;;;4.13;1.60;;;15.30;91.50;;;;;;2051856;28;20067;-94
2021/08/28 03:38:17;;;;;;;3.33;1.40;;;15.30;91.50;;;;;;2057533;28;20034;-94
2021/08/28 03:39:18;;;;;;;2.55;1.30;;;15.40;91.50;;;;;;2057893;28;20062;-94
2021/08/28 03:40:19;;;;;;;2.33;1.20;;;15.30;91.80;;;;;;2042280;29;20048;-93
2021/08/28 03:41:20;;;;;;;2.47;1.40;;;15.30;91.50;;;;;;2041194;29;20036;-92
2021/08/28 03:42:21;;;;;;;3.58;1.40;;;15.30;91.50;;;;;;2041834;29;20056;-93
2021/08/28 03:43:21;;;;;;;1.77;1.08;;;15.30;91.50;;;;;;2050860;28;20031;-93
2021/08/28 03:44:22;;;;;;;3.13;1.30;;;15.30;91.60;;;;;;2057679;28;20051;-93
2021/08/28 03:45:28;;;;;;;4.35;1.25;;;15.40;91.60;;;;;;2049934;28;20058;-93
2021/08/28 03:46:31;;;;;;;2.63;1.40;;;15.40;91.60;;;;;;2042451;29;20032;-92
2021/08/28 03:47:34;;;;;;;3.35;1.48;;;15.40;91.60;;;;;;2033402;29;20036;-93
2021/08/28 03:48:38;;;;;;;3.13;1.40;;;15.40;91.50;;;;;;2051381;28;20051;-93
2021/08/28 03:49:38;;;;;;;3.30;1.25;;;15.40;91.50;;;;;;2058737;28;20026;-94
2021/08/28 03:50:39;;;;;;;4.47;1.58;;;15.40;91.50;;;;;;2059899;28;20066;-92
2021/08/28 03:51:40;;;;;;;2.65;1.25;;;15.40;91.50;;;;;;2063075;28;20031;-94
2021/08/28 03:52:40;;;;;;;3.85;1.52;;;15.40;91.50;;;;;;2065278;28;20034;-95
2021/08/28 03:53:41;;;;;;;2.50;1.13;;;15.40;91.50;;;;;;2057929;28;20051;-95
2021/08/28 03:54:43;;;;;;;2.72;1.35;;;15.40;91.50;;;;;;2063568;28;20035;-96
2021/08/28 03:55:43;;;;;;;3.00;1.40;;;15.40;91.50;;;;;;2063092;28;20049;-94
2021/08/28 03:56:44;;;;;;;3.05;1.52;;;15.40;91.50;;;;;;2060504;28;20521;-93
2021/08/28 03:57:45;;;;;;;2.30;1.30;;;15.40;91.50;;;;;;2059822;28;20129;-94
2021/08/28 03:58:45;;;;;;;3.55;1.30;;;15.40;91.50;;;;;;2058985;28;20111;-94
2021/08/28 03:59:46;;;;;;;4.97;1.50;;;15.40;91.50;;;;;;2057124;28;20128;-96
2021/08/28 04:00:46;;;;;;;2.42;1.30;;;15.40;91.80;;;;;;2044456;29;20070;-95
2021/08/28 04:01:47;;;;;;;2.58;1.30;;;15.40;91.60;;;;;;2051526;29;20055;-95
2021/08/28 04:02:48;;;;;;;3.60;1.38;;;15.40;91.60;;;;;;2045196;29;20044;-95
2021/08/28 04:03:48;;;;;;;3.58;1.17;;;15.40;91.60;;;;;;2047330;28;20047;-95
2021/08/28 04:04:49;;;;;;;2.42;1.50;;;15.40;91.90;;;;;;2040410;29;20028;-95
2021/08/28 04:05:50;;;;;;;3.13;1.55;;;15.40;91.90;;;;;;2033455;29;20033;-95
2021/08/28 04:06:50;;;;;;;5.25;1.52;;;15.40;91.60;;;;;;2056918;28;20043;-95
2021/08/28 04:07:51;;;;;;;3.85;1.40;;;15.40;91.60;;;;;;2056756;29;20031;-95
2021/08/28 04:08:52;;;;;;;3.22;1.40;;;15.40;91.60;;;;;;2047069;29;20042;-95
2021/08/28 04:09:52;;;;;;;4.50;2.00;;;15.40;91.60;;;;;;2051954;28;20536;-95
2021/08/28 04:10:53;;;;;;;3.50;1.42;;;15.50;91.70;;;;;;2053514;29;20514;-95
2021/08/28 04:11:54;;;;;;;2.85;1.30;;;15.40;91.70;;;;;;2061067;28;20066;-94
2021/08/28 04:12:54;;;;;;;4.65;1.50;;;15.40;91.70;;;;;;2066288;28;20046;-96
2021/08/28 04:13:55;;;;;;;3.63;1.50;;;15.40;91.70;;;;;;2057103;28;20050;-95
2021/08/28 04:14:56;;;;;;;3.72;1.73;;;15.40;91.70;;;;;;2057302;29;20077;-95
2021/08/28 04:15:56;;;;;;;3.03;1.73;;;15.40;91.80;;;;;;2054106;28;20034;-95
2021/08/28 04:16:57;;;;;;;3.10;1.50;;;15.40;91.70;;;;;;2063244;28;20070;-96
2021/08/28 04:17:57;;;;;;;2.97;1.42;;;15.50;91.80;;;;;;2056717;29;20043;-96
2021/08/28 04:18:58;;;;;;;3.08;1.60;;;15.40;91.80;;;;;;2065627;28;20039;-96
2021/08/28 04:19:59;;;;;;;2.92;1.60;;;15.40;91.80;;;;;;2073965;28;20038;-87
2021/08/28 04:21:00;;;;;;;2.72;1.42;;;15.50;91.80;;;;;;2066759;28;20102;-96
2021/08/28 04:22:01;;;;;;;3.33;1.70;;;15.50;91.80;;;;;;2058431;28;20027;-94
2021/08/28 04:23:01;;;;;;;3.92;1.85;;;15.50;91.80;;;;;;2055230;28;20094;-95
2021/08/28 04:24:02;;;;;;;3.55;1.63;;;15.50;91.80;;;;;;2046981;29;20043;-95
2021/08/28 04:25:03;;;;;;;4.88;2.00;;;15.40;91.80;;;;;;2050092;29;20051;-96
2021/08/28 04:26:04;;;;;;;3.75;1.70;;;15.40;91.80;;;;;;2066020;28;20046;-95
2021/08/28 04:27:04;;;;;;;3.55;1.70;;;15.50;91.80;;;;;;2065884;28;20058;-96
2021/08/28 04:28:05;;;;;;;4.43;1.90;;;15.40;91.80;;;;;;2067422;28;20062;-95
2021/08/28 04:29:06;;;;;;;3.65;1.70;;;15.40;91.80;;;;;;2066457;28;20051;-94
2021/08/28 04:30:09;;;;;;;3.22;1.73;;;15.40;91.80;;;;;;2065232;28;20039;-96
2021/08/28 04:31:10;;;;;;;3.13;1.60;;;15.40;91.90;;;;;;2059821;28;20043;-95
2021/08/28 04:32:10;;;;;;;2.80;1.70;;;15.40;91.90;;;;;;2058710;29;20107;-96
2021/08/28 04:33:11;;;;;;;4.80;2.03;;;15.40;91.90;;;;;;2059270;29;20054;-95
2021/08/28 04:34:12;;;;;;;3.35;1.67;;;15.40;91.90;;;;;;2059167;28;20110;-95
2021/08/28 04:35:13;;;;;;;4.50;1.60;;;15.40;91.90;;;;;;2059341;28;20023;-96
2021/08/28 04:36:13;;;;;;;3.67;1.75;;;15.40;91.90;;;;;;2065416;28;20038;-96
2021/08/28 04:37:14;;;;;;;5.22;1.80;;;15.40;91.90;;;;;;2059101;28;20085;-89
2021/08/28 04:38:15;;;;;;;5.07;2.00;;;15.40;91.90;;;;;;2050136;29;20070;-95
2021/08/28 04:39:15;;;;;;;3.75;1.95;;;15.40;91.90;;;;;;2059351;28;20035;-95
2021/08/28 04:40:16;;;;;;;3.55;1.85;;;15.40;92.20;;;;;;2067464;28;20040;-95
2021/08/28 04:41:17;;;;;;;3.60;1.60;;;15.40;91.90;;;;;;2066330;28;20063;-95
2021/08/28 04:42:19;;;;;;;3.45;1.80;;;15.40;91.90;;;;;;2069457;28;20038;-93
2021/08/28 04:43:20;;;;;;;2.85;1.67;;;15.40;91.90;;;;;;2074033;28;20015;-96
2021/08/28 04:44:21;;;;;;;4.13;2.15;;;15.40;91.90;;;;;;2065417;28;20035;-94
2021/08/28 04:45:22;;;;;;;4.00;1.80;;;15.40;91.90;;;;;;2066903;28;20030;-87
2021/08/28 04:46:22;;;;;;;3.00;1.70;;;15.40;92.00;;;;;;2060049;28;20035;-86
2021/08/28 04:47:23;;;;;;;4.45;1.67;;;15.40;92.00;;;;;;2059711;28;20070;-96
2021/08/28 04:48:23;;;;;;;3.28;1.67;;;15.40;92.00;;;;;;2066915;28;20204;-94
2021/08/28 04:49:24;;;;;;;4.22;2.17;;;15.40;92.00;;;;;;2066919;28;20039;-96
2021/08/28 04:50:25;;;;;;;4.72;2.00;;;15.40;92.00;;;;;;2050177;29;20043;-96
2021/08/28 04:51:25;;;;;;;4.05;1.70;;;15.30;92.00;;;;;;2051521;29;20606;-95
2021/08/28 04:52:26;;;;;;;3.85;1.75;;;15.40;92.00;;;;;;2067508;28;20030;-96
2021/08/28 04:53:26;;;;;;;3.60;1.67;;;15.40;92.00;;;;;;2059296;29;20029;-96
2021/08/28 04:54:27;;;;;;;2.95;1.58;;;15.40;92.00;;;;;;2051459;29;20032;-96
2021/08/28 04:55:29;;;;;;;2.75;1.58;;;15.30;92.00;;;;;;2051626;28;20024;-87
2021/08/28 04:56:30;;;;;;;4.15;1.70;;;15.30;92.00;;;;;;2059666;28;20113;-82
2021/08/28 04:57:31;;;;;;;3.17;1.50;;;15.30;92.00;;;;;;2059607;28;20043;-78
2021/08/28 04:58:32;;;;;;;3.78;1.88;;;15.30;92.10;;;;;;2059710;28;20043;-83
2021/08/28 04:59:32;;;;;;;3.35;1.70;;;15.30;92.10;;;;;;2059797;28;20020;-79
2021/08/28 05:00:33;;;;;;;5.07;1.95;;;15.30;92.10;;;;;;2059458;28;20039;-96
2021/08/28 05:01:34;;;;;;;3.47;2.13;;;15.30;92.10;;;;;;2059197;29;20023;-96
2021/08/28 05:02:34;;;;;;;3.67;1.77;;;15.30;92.10;;;;;;2067640;28;20097;-92
2021/08/28 05:03:35;;;;;;;4.00;1.85;;;15.30;92.10;;;;;;2067632;28;20011;-79
2021/08/28 05:04:35;;;;;;;3.40;1.50;;;15.30;92.10;;;;;;2051595;29;20027;-80
2021/08/28 05:05:36;;;;;;;2.80;1.60;;;15.30;92.10;;;;;;2051736;29;20028;-77
2021/08/28 05:06:37;;;;;;;4.75;1.63;;;15.30;92.10;;;;;;2059700;28;20019;-78
2021/08/28 05:07:38;;;;;;;3.65;1.70;;;15.30;92.10;;;;;;2059826;28;20029;-78
2021/08/28 05:08:39;;;;;;;3.65;1.65;;;15.30;92.10;;;;;;2059335;28;20031;-89
2021/08/28 05:09:40;;;;;;;4.47;1.70;;;15.40;92.10;;;;;;2060009;28;20031;-89
2021/08/28 05:10:41;;;;;;;3.63;1.85;;;15.30;92.10;;;;;;2066615;28;20027;-82
2021/08/28 05:11:41;;;;;;;4.95;2.10;;;15.30;92.10;;;;;;2061700;28;20043;-92
2021/08/28 05:12:42;;;;;;;3.92;1.63;;;15.30;92.10;;;;;;2059221;28;20062;-86
2021/08/28 05:13:43;;;;;;;3.70;1.90;;;15.40;92.10;;;;;;2055892;28;20035;-94
2021/08/28 05:14:43;;;;;;;4.28;1.95;;;15.40;92.10;;;;;;2066649;28;20038;-94
2021/08/28 05:15:44;;;;;;;4.03;1.90;;;15.40;92.10;;;;;;2060652;28;20043;-95
2021/08/28 05:16:44;;;;;;;3.45;1.80;;;15.40;92.10;;;;;;2053638;28;20035;-95
2021/08/28 05:17:45;;;;;;;3.70;1.83;;;15.40;92.10;;;;;;2061072;28;20034;-94
2021/08/28 05:18:46;;;;;;;4.88;2.08;;;15.40;92.10;;;;;;2044098;29;20043;-95
2021/08/28 05:19:47;;;;;;;3.28;2.17;;;15.40;92.10;;;;;;2051090;28;20037;-94
2021/08/28 05:20:47;;;;;;;4.32;1.90;;;15.40;92.10;;;;;;2058862;28;20047;-94
2021/08/28 05:21:48;;;;;;;3.63;1.90;;;15.40;92.00;;;;;;2060039;28;20113;-94
2021/08/28 05:22:48;;;;;;;4.05;1.95;;;15.50;92.30;;;;;;2062897;28;20133;-94
2021/08/28 05:23:49;;;;;;;2.78;1.88;;;15.50;92.00;;;;;;2063199;28;20038;-94
2021/08/28 05:24:50;;;;;;;4.60;2.00;;;15.50;92.00;;;;;;2056057;28;20035;-95
2021/08/28 05:25:51;;;;;;;3.75;1.75;;;15.50;92.00;;;;;;2062944;28;20056;-94
2021/08/28 05:26:51;;;;;;;3.17;1.90;;;15.50;92.00;;;;;;2054945;29;20036;-94